Time;durP1;ratioP1;P1;durP2;ratioP2;P2;SDS_P1;SDS_P2;PMS_P1;PMS_P2;Temp;Humidity;BMP_temperature;BMP_pressure;BME280_temperature;BME280_humidity;BME280_pressure;Samples;Min_cycle;Max_cycle;Signal;HPM_P1;HPM_P2
2021/06/26 00:01:43;;;;;;;26.00;13.40;;;16.90;99.90;;;;;;5029620;28;20410;-50
2021/06/26 00:04:10;;;;;;;21.40;13.32;;;17.00;99.90;;;;;;5028570;28;20569;-50
2021/06/26 00:06:36;;;;;;;20.00;12.50;;;17.00;99.90;;;;;;5029682;28;20439;-50
2021/06/26 00:09:02;;;;;;;23.80;13.65;;;17.00;99.90;;;;;;5028652;28;20847;-52
2021/06/26 00:11:28;;;;;;;20.73;13.40;;;17.00;99.90;;;;;;5029429;28;20406;-50
2021/06/26 00:13:54;;;;;;;21.30;12.90;;;17.00;99.90;;;;;;5029514;28;20870;-50
2021/06/26 00:16:19;;;;;;;20.97;13.40;;;17.00;99.90;;;;;;5032016;28;20852;-50
2021/06/26 00:18:45;;;;;;;19.40;13.00;;;17.00;99.90;;;;;;5033498;28;20387;-50
2021/06/26 00:21:10;;;;;;;20.90;12.40;;;17.00;99.90;;;;;;5032821;28;20407;-51
2021/06/26 00:23:36;;;;;;;22.53;13.20;;;17.10;99.90;;;;;;5033386;28;20866;-50
2021/06/26 00:26:02;;;;;;;22.42;13.13;;;17.10;99.90;;;;;;5032528;28;20386;-52
2021/06/26 00:28:28;;;;;;;25.50;13.60;;;17.10;99.90;;;;;;5033549;28;20391;-50
2021/06/26 00:30:53;;;;;;;22.75;14.50;;;17.10;99.90;;;;;;5032963;28;20393;-49
2021/06/26 00:33:19;;;;;;;22.70;14.70;;;17.10;99.90;;;;;;5032274;28;20891;-49
2021/06/26 00:35:44;;;;;;;24.67;14.00;;;17.10;99.90;;;;;;5031563;28;20489;-49
2021/06/26 00:38:10;;;;;;;21.77;13.35;;;17.10;99.90;;;;;;5032309;28;20386;-50
2021/06/26 00:40:36;;;;;;;21.35;13.05;;;17.10;99.90;;;;;;5033042;28;20494;-49
2021/06/26 00:43:02;;;;;;;21.80;12.87;;;17.20;99.90;;;;;;5032741;28;20910;-51
2021/06/26 00:45:27;;;;;;;19.05;13.10;;;17.30;99.90;;;;;;5032715;28;20383;-49
2021/06/26 00:47:53;;;;;;;21.80;12.35;;;17.30;99.90;;;;;;5032973;28;20473;-50
2021/06/26 00:50:25;;;;;;;19.80;12.70;;;17.30;99.90;;;;;;5032208;28;20391;-49
2021/06/26 00:52:51;;;;;;;19.30;12.07;;;17.20;99.90;;;;;;5032990;28;20391;-49
2021/06/26 00:55:18;;;;;;;21.95;12.50;;;17.20;99.90;;;;;;5031815;28;20413;-49
2021/06/26 00:57:54;;;;;;;19.45;13.10;;;17.10;99.90;;;;;;5032973;28;20387;-50
2021/06/26 01:00:21;;;;;;;21.65;12.70;;;17.20;99.90;;;;;;5031000;28;20427;-50
2021/06/26 01:02:46;;;;;;;20.50;11.95;;;17.30;99.90;;;;;;5032765;28;20387;-49
2021/06/26 01:05:13;;;;;;;25.25;12.35;;;17.30;99.90;;;;;;5031887;28;20931;-49
2021/06/26 01:07:39;;;;;;;20.55;12.68;;;17.30;99.90;;;;;;5032786;28;20379;-49
2021/06/26 01:10:06;;;;;;;25.70;12.50;;;17.40;99.90;;;;;;5032024;28;20387;-49
2021/06/26 01:12:32;;;;;;;21.13;12.43;;;17.50;99.90;;;;;;5032316;28;20521;-49
2021/06/26 01:14:58;;;;;;;21.23;13.13;;;17.30;99.90;;;;;;5032660;28;20380;-50
2021/06/26 01:17:24;;;;;;;19.73;12.90;;;17.30;99.90;;;;;;5031689;28;20939;-49
2021/06/26 01:19:50;;;;;;;23.38;13.38;;;17.20;99.90;;;;;;5032605;28;20474;-49
2021/06/26 01:22:21;;;;;;;20.63;13.05;;;17.20;99.90;;;;;;5031440;28;20493;-49
2021/06/26 01:24:47;;;;;;;25.17;13.50;;;17.20;99.90;;;;;;5032385;28;20399;-49
2021/06/26 01:27:14;;;;;;;19.77;13.50;;;17.20;99.90;;;;;;5030244;28;20761;-49
2021/06/26 01:29:49;;;;;;;21.55;12.80;;;17.10;99.90;;;;;;5032483;28;20394;-49
2021/06/26 01:32:16;;;;;;;22.33;13.63;;;17.10;99.90;;;;;;5031518;28;20386;-49
2021/06/26 01:34:42;;;;;;;22.85;13.43;;;17.10;99.90;;;;;;5032302;28;20497;-49
2021/06/26 01:37:07;;;;;;;21.67;14.27;;;17.00;99.90;;;;;;5031348;28;20402;-49
2021/06/26 01:39:33;;;;;;;21.30;14.33;;;16.90;99.90;;;;;;5032127;28;20383;-49
2021/06/26 01:41:59;;;;;;;22.75;13.40;;;16.90;99.90;;;;;;5031952;28;20414;-49
2021/06/26 01:44:24;;;;;;;29.17;15.32;;;16.90;99.90;;;;;;5031080;28;20391;-49
2021/06/26 01:46:51;;;;;;;23.07;13.10;;;16.80;99.90;;;;;;5031655;28;20410;-49
2021/06/26 01:49:18;;;;;;;22.87;14.00;;;16.90;99.90;;;;;;5031000;28;20390;-49
2021/06/26 01:51:44;;;;;;;26.48;14.63;;;16.90;99.90;;;;;;5032019;28;20494;-49
2021/06/26 01:54:10;;;;;;;24.08;14.13;;;17.00;99.90;;;;;;5030990;28;20456;-49
2021/06/26 01:56:37;;;;;;;26.52;14.25;;;17.10;99.90;;;;;;5031844;28;20437;-49
2021/06/26 01:59:04;;;;;;;22.90;14.43;;;17.20;99.90;;;;;;5031421;28;20452;-52
2021/06/26 02:01:30;;;;;;;24.60;14.38;;;17.10;99.90;;;;;;5030193;28;20903;-50
2021/06/26 02:03:55;;;;;;;26.45;14.27;;;17.00;99.90;;;;;;5031446;28;20521;-50
2021/06/26 02:06:21;;;;;;;24.57;14.97;;;17.00;99.90;;;;;;5030951;28;21036;-50
2021/06/26 02:08:47;;;;;;;24.83;14.35;;;17.10;99.90;;;;;;5031591;28;20853;-50
2021/06/26 02:11:12;;;;;;;24.00;14.43;;;17.00;99.90;;;;;;5030671;28;20863;-50
2021/06/26 02:13:39;;;;;;;24.38;13.90;;;17.00;99.90;;;;;;5031573;28;20435;-50
2021/06/26 02:16:04;;;;;;;23.55;14.27;;;17.00;99.90;;;;;;5030583;28;20384;-52
2021/06/26 02:18:30;;;;;;;22.25;14.05;;;17.80;99.90;;;;;;5030093;28;20784;-50
2021/06/26 02:20:56;;;;;;;22.80;14.20;;;17.00;99.90;;;;;;5030872;28;20423;-50
2021/06/26 02:23:22;;;;;;;24.75;14.88;;;17.10;99.90;;;;;;5030477;28;20633;-50
2021/06/26 02:25:47;;;;;;;21.87;13.03;;;17.10;99.90;;;;;;5031556;28;20833;-50
2021/06/26 02:28:13;;;;;;;23.02;13.60;;;17.20;99.90;;;;;;5030507;28;20383;-50
2021/06/26 02:30:39;;;;;;;21.70;13.70;;;17.20;99.90;;;;;;5031220;28;20474;-50
2021/06/26 02:33:04;;;;;;;21.07;12.67;;;17.20;99.90;;;;;;5030547;28;20387;-52
2021/06/26 02:35:30;;;;;;;23.90;14.20;;;17.30;99.90;;;;;;5030673;28;20753;-51
2021/06/26 02:37:56;;;;;;;21.73;13.52;;;17.30;99.90;;;;;;5030942;28;20441;-50
2021/06/26 02:40:22;;;;;;;21.33;14.00;;;17.30;99.90;;;;;;5029937;28;20497;-50
2021/06/26 02:42:48;;;;;;;19.00;13.10;;;17.20;99.90;;;;;;5031216;28;20772;-50
2021/06/26 02:45:14;;;;;;;22.92;13.38;;;17.20;99.90;;;;;;5029892;28;20415;-50
2021/06/26 02:47:41;;;;;;;21.30;13.52;;;17.10;99.90;;;;;;5030658;28;20402;-50
2021/06/26 02:50:08;;;;;;;22.50;13.70;;;17.10;99.90;;;;;;5030072;28;20437;-53
2021/06/26 02:52:34;;;;;;;20.90;13.52;;;17.00;99.90;;;;;;5030491;28;20375;-50
2021/06/26 02:55:00;;;;;;;22.58;13.30;;;16.90;99.90;;;;;;5030601;28;20711;-50
2021/06/26 02:57:25;;;;;;;24.60;13.47;;;17.10;99.90;;;;;;5029423;28;20391;-50
2021/06/26 02:59:52;;;;;;;23.00;14.90;;;17.10;99.90;;;;;;5030425;28;20391;-50
2021/06/26 03:02:18;;;;;;;22.43;15.03;;;17.20;99.90;;;;;;5029565;28;20399;-50
2021/06/26 03:04:43;;;;;;;21.38;14.32;;;17.20;99.90;;;;;;5030059;28;20506;-50
2021/06/26 03:07:09;;;;;;;21.60;14.10;;;17.10;99.90;;;;;;5029465;28;20379;-51
2021/06/26 03:09:36;;;;;;;20.08;13.63;;;17.10;99.90;;;;;;5030142;28;20386;-52
2021/06/26 03:12:02;;;;;;;21.55;13.93;;;17.10;99.90;;;;;;5030423;28;20844;-50
2021/06/26 03:14:27;;;;;;;24.75;13.70;;;17.20;99.90;;;;;;5029201;28;20917;-50
2021/06/26 03:16:53;;;;;;;21.17;13.50;;;17.20;99.90;;;;;;5029819;28;20449;-50
2021/06/26 03:19:19;;;;;;;24.57;13.80;;;17.10;99.90;;;;;;5029484;28;20383;-50
2021/06/26 03:21:45;;;;;;;25.85;13.90;;;17.10;99.90;;;;;;5030283;28;20434;-50
2021/06/26 03:24:13;;;;;;;26.85;13.52;;;17.10;99.90;;;;;;5029533;28;20373;-50
2021/06/26 03:26:38;;;;;;;21.35;13.80;;;17.20;99.90;;;;;;5029875;28;20383;-50
2021/06/26 03:29:05;;;;;;;24.17;13.90;;;17.20;99.90;;;;;;5030016;28;20884;-52
2021/06/26 03:31:32;;;;;;;22.10;13.40;;;17.20;99.90;;;;;;5030016;28;20478;-50
2021/06/26 03:33:58;;;;;;;22.50;13.67;;;17.30;99.90;;;;;;5029996;28;20481;-50
2021/06/26 03:36:24;;;;;;;24.63;14.18;;;17.30;99.90;;;;;;5028972;28;20414;-52
2021/06/26 03:38:51;;;;;;;22.15;14.48;;;17.40;99.90;;;;;;5029673;28;20387;-51
2021/06/26 03:41:17;;;;;;;23.17;14.05;;;17.50;99.90;;;;;;5028870;28;20777;-50
2021/06/26 03:43:42;;;;;;;20.25;13.70;;;17.40;99.90;;;;;;5029695;28;20406;-50
2021/06/26 03:46:08;;;;;;;23.50;14.23;;;17.40;99.90;;;;;;5029216;28;20558;-50
2021/06/26 03:48:34;;;;;;;23.17;13.90;;;17.40;99.90;;;;;;5029510;28;20426;-50
2021/06/26 03:51:00;;;;;;;21.40;13.90;;;17.40;99.90;;;;;;5028727;28;20390;-49
2021/06/26 03:53:27;;;;;;;21.07;14.20;;;17.40;99.90;;;;;;5028959;28;20390;-50
2021/06/26 03:55:52;;;;;;;24.13;13.35;;;17.40;99.90;;;;;;5029536;28;20837;-49
2021/06/26 03:58:23;;;;;;;24.60;14.10;;;17.40;99.90;;;;;;5028510;28;20394;-49
2021/06/26 04:00:50;;;;;;;26.30;14.60;;;17.40;99.90;;;;;;5029694;28;20410;-49
2021/06/26 04:03:16;;;;;;;26.33;14.00;;;17.40;99.90;;;;;;5028614;28;20414;-50
2021/06/26 04:05:45;;;;;;;22.85;13.48;;;17.40;99.90;;;;;;5029424;28;20430;-50
2021/06/26 04:08:12;;;;;;;22.57;13.80;;;17.30;99.90;;;;;;5028483;28;20383;-49
2021/06/26 04:10:38;;;;;;;22.27;13.70;;;17.30;99.90;;;;;;5029300;28;20912;-49
2021/06/26 04:13:04;;;;;;;23.73;15.43;;;17.20;99.90;;;;;;5029063;28;20434;-52
2021/06/26 04:15:31;;;;;;;22.90;14.18;;;17.20;99.90;;;;;;5029539;28;20427;-49
2021/06/26 04:17:56;;;;;;;24.23;13.82;;;17.20;99.90;;;;;;5029326;28;20445;-49
2021/06/26 04:20:22;;;;;;;23.80;13.97;;;17.20;99.90;;;;;;5028314;28;20385;-49
2021/06/26 04:22:48;;;;;;;23.48;14.10;;;17.20;99.90;;;;;;5029342;28;20395;-50
2021/06/26 04:25:14;;;;;;;23.87;14.33;;;17.30;99.90;;;;;;5028561;28;20382;-50
2021/06/26 04:27:41;;;;;;;20.17;12.60;;;17.50;99.90;;;;;;5029083;28;20883;-49
2021/06/26 04:30:07;;;;;;;27.15;14.00;;;17.50;99.90;;;;;;5028735;28;20397;-52
2021/06/26 04:32:36;;;;;;;24.50;13.40;;;17.60;99.90;;;;;;5029155;28;20411;-50
2021/06/26 04:35:03;;;;;;;24.75;13.38;;;17.50;99.90;;;;;;5027765;28;20403;-50
2021/06/26 04:37:29;;;;;;;20.95;12.75;;;17.60;99.90;;;;;;5028518;28;20497;-49
2021/06/26 04:39:54;;;;;;;24.27;14.50;;;17.80;99.90;;;;;;5029047;28;20904;-50
2021/06/26 04:42:20;;;;;;;20.93;13.53;;;17.90;99.90;;;;;;5028269;28;20931;-50
2021/06/26 04:44:46;;;;;;;23.40;14.00;;;18.00;99.90;;;;;;5028991;28;20915;-50
2021/06/26 04:47:12;;;;;;;21.63;13.00;;;18.10;99.90;;;;;;5028367;28;20383;-50
2021/06/26 04:49:37;;;;;;;18.52;13.10;;;18.10;99.90;;;;;;5029239;28;20916;-49
2021/06/26 04:52:04;;;;;;;22.85;14.10;;;18.40;99.90;;;;;;5029008;28;20395;-50
2021/06/26 04:54:30;;;;;;;23.10;13.40;;;18.50;99.90;;;;;;5028549;28;20413;-50
2021/06/26 04:56:56;;;;;;;22.55;14.07;;;18.70;99.90;;;;;;5028866;28;20390;-50
2021/06/26 04:59:21;;;;;;;23.33;15.00;;;19.00;99.90;;;;;;5027560;28;20384;-50
2021/06/26 05:01:47;;;;;;;21.37;13.80;;;19.70;99.90;;;;;;5029268;28;20415;-50
2021/06/26 05:04:13;;;;;;;19.73;13.80;;;20.50;99.90;;;;;;5031338;28;20418;-49
2021/06/26 05:06:38;;;;;;;18.90;13.20;;;21.30;99.90;;;;;;5029766;28;20399;-49
2021/06/26 05:09:05;;;;;;;19.05;13.10;;;22.20;99.90;;;;;;5032778;28;20733;-49
2021/06/26 05:11:30;;;;;;;19.98;12.30;;;23.10;99.90;;;;;;5031566;28;20426;-51
2021/06/26 05:13:56;;;;;;;15.85;11.93;;;23.80;99.90;;;;;;5032240;28;20411;-50
2021/06/26 05:16:22;;;;;;;18.50;13.50;;;24.60;99.90;;;;;;5031325;28;20387;-49
2021/06/26 05:18:47;;;;;;;17.63;13.25;;;25.30;99.90;;;;;;5032100;28;20479;-49
2021/06/26 05:21:13;;;;;;;18.67;13.10;;;26.00;99.90;;;;;;5031353;28;20406;-50
2021/06/26 05:23:40;;;;;;;18.55;13.05;;;26.10;99.90;;;;;;5031986;28;20737;-49
2021/06/26 05:26:09;;;;;;;18.10;13.30;;;25.90;99.90;;;;;;5031908;28;20384;-50
2021/06/26 05:28:36;;;;;;;18.48;12.48;;;25.90;99.90;;;;;;5031853;28;20387;-50
2021/06/26 05:31:01;;;;;;;23.58;14.00;;;26.90;99.90;;;;;;5030646;28;20391;-49
2021/06/26 05:33:27;;;;;;;16.42;13.73;;;27.50;99.90;;;;;;5031389;28;21054;-49
2021/06/26 05:35:53;;;;;;;19.15;14.02;;;28.10;99.90;;;;;;5030590;28;20753;-52
2021/06/26 05:38:19;;;;;;;18.75;15.35;;;27.80;99.90;;;;;;5025777;28;20383;-49
2021/06/26 05:40:44;;;;;;;18.63;15.23;;;27.90;99.90;;;;;;5031438;28;20480;-49
2021/06/26 05:43:10;;;;;;;19.57;14.80;;;28.70;99.90;;;;;;5031322;28;20406;-54
2021/06/26 05:45:36;;;;;;;20.93;16.50;;;28.80;99.90;;;;;;5031073;28;20931;-50
2021/06/26 05:48:01;;;;;;;17.57;14.67;;;29.00;99.90;;;;;;5031708;28;20462;-50
2021/06/26 05:50:27;;;;;;;18.30;12.95;;;29.20;99.90;;;;;;5029067;28;20466;-50
2021/06/26 05:52:55;;;;;;;18.02;13.77;;;29.00;99.90;;;;;;5026866;28;20507;-50
2021/06/26 05:55:24;;;;;;;16.50;12.60;;;29.20;99.90;;;;;;5030609;28;20437;-50
2021/06/26 05:57:50;;;;;;;17.05;13.45;;;28.80;99.90;;;;;;5010910;28;20859;-50
2021/06/26 06:00:17;;;;;;;17.80;12.90;;;27.90;99.90;;;;;;5015540;28;20392;-49
2021/06/26 06:02:44;;;;;;;16.48;12.48;;;28.00;99.90;;;;;;5031487;28;20530;-50
2021/06/26 06:05:12;;;;;;;18.35;13.15;;;28.40;99.90;;;;;;5030547;28;20446;-52
2021/06/26 06:07:39;;;;;;;18.83;14.63;;;28.80;99.90;;;;;;5030651;28;20465;-50
2021/06/26 06:10:06;;;;;;;18.25;11.90;;;29.70;99.30;;;;;;5029022;28;20387;-50
2021/06/26 06:12:33;;;;;;;17.13;12.80;;;30.10;98.30;;;;;;5029976;28;20510;-51
2021/06/26 06:15:01;;;;;;;16.25;11.60;;;30.80;96.70;;;;;;5031284;28;20379;-50
2021/06/26 06:17:27;;;;;;;15.40;12.40;;;31.50;95.10;;;;;;5029734;28;20844;-50
2021/06/26 06:19:52;;;;;;;18.10;12.40;;;31.00;94.80;;;;;;5030877;28;20468;-50
2021/06/26 06:22:18;;;;;;;19.95;13.55;;;29.90;96.10;;;;;;5029953;28;20869;-50
2021/06/26 06:24:44;;;;;;;19.10;12.82;;;29.10;97.30;;;;;;5030481;28;20391;-50
2021/06/26 06:27:10;;;;;;;20.40;15.88;;;27.80;99.10;;;;;;5030570;28;20430;-54
2021/06/26 06:29:35;;;;;;;18.47;14.93;;;26.70;99.90;;;;;;5030703;28;20411;-51
2021/06/26 06:32:01;;;;;;;19.50;15.30;;;25.90;99.90;;;;;;5030659;28;20387;-51
2021/06/26 06:34:27;;;;;;;21.85;16.52;;;25.20;99.90;;;;;;5029755;28;20853;-50
2021/06/26 06:36:53;;;;;;;20.63;16.13;;;24.30;99.90;;;;;;5029885;28;20383;-51
2021/06/26 06:39:19;;;;;;;20.92;15.13;;;23.70;99.90;;;;;;5026502;28;20725;-51
2021/06/26 06:41:45;;;;;;;21.95;15.85;;;23.60;99.90;;;;;;5028097;28;20433;-51
2021/06/26 06:44:11;;;;;;;22.70;14.00;;;23.90;99.90;;;;;;5029585;28;20735;-55
2021/06/26 06:46:37;;;;;;;23.42;16.50;;;23.90;99.90;;;;;;5029747;28;20387;-51
2021/06/26 06:49:02;;;;;;;21.40;15.40;;;23.70;99.90;;;;;;5030441;28;20376;-51
2021/06/26 06:51:28;;;;;;;19.70;14.30;;;23.80;99.90;;;;;;5027086;28;20419;-51
2021/06/26 06:53:54;;;;;;;19.50;14.33;;;23.70;99.90;;;;;;5029550;28;20383;-50
2021/06/26 06:56:19;;;;;;;21.90;14.30;;;24.10;99.90;;;;;;5028918;28;20390;-51
2021/06/26 06:58:45;;;;;;;18.57;13.37;;;25.20;99.90;;;;;;5029946;28;20903;-51
2021/06/26 07:01:11;;;;;;;19.37;13.67;;;26.10;99.90;;;;;;5030223;28;20451;-54
2021/06/26 07:03:36;;;;;;;19.23;14.70;;;27.20;99.90;;;;;;5029043;28;20391;-51
2021/06/26 07:06:02;;;;;;;19.13;15.30;;;28.20;99.90;;;;;;5029637;28;20821;-50
2021/06/26 07:08:28;;;;;;;18.73;14.60;;;29.30;99.90;;;;;;5028954;28;20753;-50
2021/06/26 07:10:53;;;;;;;19.03;13.17;;;29.50;99.90;;;;;;5029762;28;20392;-51
2021/06/26 07:13:19;;;;;;;21.53;18.30;;;29.10;99.50;;;;;;5029005;28;20379;-50
2021/06/26 07:15:45;;;;;;;19.40;15.07;;;28.00;99.90;;;;;;5028294;28;20445;-51
2021/06/26 07:18:12;;;;;;;19.03;15.03;;;27.10;99.90;;;;;;5029038;28;20379;-55
2021/06/26 07:20:39;;;;;;;19.40;14.25;;;26.50;99.90;;;;;;5029431;28;20406;-52
2021/06/26 07:23:04;;;;;;;19.92;14.43;;;26.90;99.90;;;;;;5029113;28;20414;-51
2021/06/26 07:25:30;;;;;;;17.10;12.80;;;27.10;99.90;;;;;;5028363;28;20979;-50
2021/06/26 07:27:56;;;;;;;17.13;12.60;;;26.90;99.90;;;;;;5027975;28;20483;-50
2021/06/26 07:30:21;;;;;;;17.13;12.90;;;26.60;99.90;;;;;;5028413;28;20387;-50
2021/06/26 07:32:47;;;;;;;16.53;12.20;;;26.80;99.90;;;;;;5027152;28;20391;-51
2021/06/26 07:35:13;;;;;;;14.87;11.20;;;26.40;99.90;;;;;;5028335;28;20403;-55
2021/06/26 07:37:39;;;;;;;15.30;11.55;;;26.60;99.90;;;;;;5029453;28;20383;-51
2021/06/26 07:40:06;;;;;;;14.67;11.00;;;27.60;97.90;;;;;;5028813;28;20449;-50
2021/06/26 07:42:32;;;;;;;15.18;11.57;;;27.50;96.90;;;;;;5028239;28;20410;-52
2021/06/26 07:44:57;;;;;;;16.20;12.03;;;27.40;96.80;;;;;;5027660;28;20391;-51
2021/06/26 07:47:23;;;;;;;19.07;10.00;;;28.50;95.20;;;;;;5028171;28;20390;-51
2021/06/26 07:49:48;;;;;;;11.70;8.90;;;29.30;93.00;;;;;;5028717;28;20384;-51
2021/06/26 07:52:14;;;;;;;12.03;9.27;;;29.30;92.30;;;;;;5027778;28;20379;-52
2021/06/26 07:54:40;;;;;;;16.65;9.07;;;29.20;92.50;;;;;;5028426;28;20487;-51
2021/06/26 07:57:06;;;;;;;12.70;8.40;;;29.10;91.30;;;;;;5028879;28;20386;-52
2021/06/26 07:59:31;;;;;;;13.07;9.38;;;28.50;91.40;;;;;;5025728;28;20447;-50
2021/06/26 08:01:57;;;;;;;11.83;8.67;;;28.10;92.40;;;;;;5028782;28;20946;-50
2021/06/26 08:04:23;;;;;;;14.10;8.80;;;28.00;92.10;;;;;;5027786;28;20415;-50
2021/06/26 08:06:48;;;;;;;12.73;8.80;;;27.70;92.50;;;;;;5028284;28;20410;-50
2021/06/26 08:09:14;;;;;;;12.00;8.20;;;28.20;91.40;;;;;;5027920;28;20390;-50
2021/06/26 08:11:40;;;;;;;11.93;8.60;;;28.00;91.80;;;;;;5028614;28;20912;-50
2021/06/26 08:14:05;;;;;;;13.57;8.97;;;27.80;91.90;;;;;;5028418;28;20379;-53
2021/06/26 08:16:31;;;;;;;13.85;8.85;;;28.10;91.60;;;;;;5028482;28;20385;-50
2021/06/26 08:18:57;;;;;;;10.57;7.15;;;29.20;89.70;;;;;;5028445;28;20383;-50
2021/06/26 08:21:22;;;;;;;12.73;8.32;;;30.40;88.80;;;;;;5027752;28;20422;-51
2021/06/26 08:23:49;;;;;;;11.27;7.60;;;31.30;81.80;;;;;;5025655;28;20399;-50
2021/06/26 08:26:15;;;;;;;12.85;7.65;;;31.20;82.40;;;;;;5026845;28;20474;-51
2021/06/26 08:28:42;;;;;;;11.03;7.80;;;32.10;77.00;;;;;;5028582;28;20459;-51
2021/06/26 08:31:08;;;;;;;11.35;7.97;;;31.90;76.30;;;;;;5028230;28;20473;-52
2021/06/26 08:33:33;;;;;;;10.82;6.97;;;31.30;75.80;;;;;;5027217;28;20383;-51
2021/06/26 08:35:59;;;;;;;10.80;7.78;;;31.60;74.70;;;;;;5030068;28;20406;-51
2021/06/26 08:38:25;;;;;;;10.52;6.70;;;31.60;72.40;;;;;;5031699;28;20387;-50
2021/06/26 08:40:55;;;;;;;11.20;7.25;;;31.90;72.50;;;;;;5032532;28;20415;-50
2021/06/26 08:43:21;;;;;;;13.48;7.60;;;32.00;72.60;;;;;;5032059;28;20422;-51
2021/06/26 08:45:48;;;;;;;11.02;7.95;;;31.90;72.20;;;;;;5032748;28;20445;-51
2021/06/26 08:48:13;;;;;;;12.70;7.85;;;32.80;70.00;;;;;;5031978;28;20383;-55
2021/06/26 08:50:39;;;;;;;12.90;7.90;;;33.70;65.70;;;;;;5032512;28;20384;-52
2021/06/26 08:53:06;;;;;;;10.70;7.55;;;33.90;65.10;;;;;;5032678;28;20403;-50
2021/06/26 08:55:32;;;;;;;12.10;8.23;;;33.60;65.80;;;;;;5031822;28;20414;-50
2021/06/26 08:58:01;;;;;;;10.35;7.60;;;33.00;65.40;;;;;;5032980;28;20394;-52
2021/06/26 09:00:27;;;;;;;10.88;7.00;;;32.50;68.70;;;;;;5032025;28;20457;-50
2021/06/26 09:03:10;;;;;;;11.13;7.50;;;32.50;67.20;;;;;;5032326;28;20540;-50
2021/06/26 09:05:36;;;;;;;10.52;7.82;;;31.90;68.40;;;;;;5031985;28;20502;-51
2021/06/26 09:08:08;;;;;;;13.60;7.63;;;31.60;68.20;;;;;;5032662;28;20932;-50
2021/06/26 09:10:35;;;;;;;9.60;7.15;;;31.50;69.40;;;;;;5031896;28;20864;-50
2021/06/26 09:13:11;;;;;;;12.27;6.70;;;31.50;69.50;;;;;;5032615;28;20402;-50
2021/06/26 09:15:37;;;;;;;11.15;7.55;;;31.00;72.70;;;;;;5031917;28;20379;-50
2021/06/26 09:18:37;;;;;;;11.68;7.40;;;31.50;70.20;;;;;;5031914;28;20813;-50
2021/06/26 09:21:16;;;;;;;9.68;7.10;;;32.20;68.00;;;;;;5030832;28;20516;-50
2021/06/26 09:23:42;;;;;;;11.10;7.68;;;32.80;67.20;;;;;;5031932;28;20458;-51
2021/06/26 09:26:12;;;;;;;10.48;7.22;;;32.40;66.50;;;;;;5032434;28;20466;-50
2021/06/26 09:28:39;;;;;;;10.20;7.33;;;32.50;66.60;;;;;;5031741;28;20391;-50
2021/06/26 09:31:18;;;;;;;11.00;6.87;;;33.00;65.90;;;;;;5031679;28;20387;-51
2021/06/26 09:33:53;;;;;;;11.68;7.30;;;32.60;64.30;;;;;;5031689;28;20399;-50
2021/06/26 09:36:23;;;;;;;11.65;7.80;;;31.10;69.10;;;;;;5031254;28;20462;-50
2021/06/26 09:38:56;;;;;;;11.20;7.30;;;30.40;72.40;;;;;;5031968;28;20391;-50
2021/06/26 09:41:22;;;;;;;12.13;8.05;;;30.30;71.50;;;;;;5030950;28;20418;-49
2021/06/26 09:43:47;;;;;;;10.70;7.30;;;30.40;71.70;;;;;;5032441;28;20955;-50
2021/06/26 09:46:18;;;;;;;12.23;7.60;;;31.30;70.70;;;;;;5031377;28;20379;-55
2021/06/26 09:48:55;;;;;;;11.02;7.70;;;31.90;67.10;;;;;;5031279;28;20383;-51
2021/06/26 09:51:31;;;;;;;10.60;7.07;;;32.40;64.40;;;;;;5031027;28;20515;-50
2021/06/26 09:54:06;;;;;;;10.30;7.30;;;33.10;63.90;;;;;;5031941;28;20391;-49
2021/06/26 09:56:45;;;;;;;10.50;7.10;;;33.40;65.30;;;;;;5031415;28;20473;-50
2021/06/26 09:59:13;;;;;;;10.40;7.32;;;33.30;64.70;;;;;;5031666;28;20433;-54
2021/06/26 10:01:43;;;;;;;10.30;7.30;;;32.20;64.40;;;;;;5030925;28;20477;-51
2021/06/26 10:04:16;;;;;;;12.52;9.85;;;30.30;67.70;;;;;;5031424;28;20414;-50
2021/06/26 10:06:42;;;;;;;11.23;7.82;;;28.60;72.70;;;;;;5031973;28;20418;-49
2021/06/26 10:09:08;;;;;;;12.30;7.78;;;28.10;76.20;;;;;;5030967;28;20426;-49
2021/06/26 10:11:36;;;;;;;10.90;7.40;;;28.80;74.10;;;;;;5030430;28;20514;-50
2021/06/26 10:14:06;;;;;;;11.93;7.85;;;28.70;76.80;;;;;;5030776;28;20474;-49
2021/06/26 10:16:32;;;;;;;10.77;7.38;;;28.30;79.10;;;;;;5030859;28;20814;-49
2021/06/26 10:19:03;;;;;;;10.97;6.80;;;28.60;79.30;;;;;;5031122;28;20371;-50
2021/06/26 10:21:29;;;;;;;11.55;7.30;;;30.20;74.80;;;;;;5030050;28;20464;-51
2021/06/26 10:23:58;;;;;;;9.45;6.40;;;30.40;70.30;;;;;;5031258;28;20881;-52
2021/06/26 10:26:24;;;;;;;10.45;7.53;;;30.10;72.30;;;;;;5030012;28;20891;-51
2021/06/26 10:29:00;;;;;;;10.35;7.90;;;30.00;73.10;;;;;;5030946;28;21182;-50
2021/06/26 10:31:36;;;;;;;10.00;6.72;;;29.80;75.00;;;;;;5030160;28;20462;-50
2021/06/26 10:34:12;;;;;;;10.60;7.35;;;29.10;75.30;;;;;;5030490;28;20399;-50
2021/06/26 10:36:40;;;;;;;10.23;7.40;;;28.50;78.10;;;;;;5030688;28;20396;-48
2021/06/26 10:39:22;;;;;;;11.13;7.37;;;28.30;79.30;;;;;;5030797;28;20383;-48
2021/06/26 10:42:00;;;;;;;10.00;7.00;;;28.50;78.90;;;;;;5030657;28;20506;-50
2021/06/26 10:44:26;;;;;;;13.00;7.80;;;28.80;78.40;;;;;;5029858;28;20383;-50
2021/06/26 10:46:52;;;;;;;11.55;8.48;;;29.10;75.80;;;;;;5030426;28;20902;-50
2021/06/26 10:49:28;;;;;;;10.67;7.70;;;28.90;77.40;;;;;;5028395;28;20463;-50
2021/06/26 10:52:05;;;;;;;11.80;7.90;;;29.00;77.80;;;;;;5029246;28;20877;-49
2021/06/26 10:54:30;;;;;;;14.00;11.10;;;28.60;79.30;;;;;;5029295;28;20466;-49
2021/06/26 10:57:05;;;;;;;11.75;8.05;;;27.60;82.50;;;;;;5030040;28;20527;-50
2021/06/26 10:59:31;;;;;;;14.60;10.48;;;27.20;86.40;;;;;;5028057;28;20379;-50
2021/06/26 11:02:00;;;;;;;11.87;10.30;;;27.20;83.40;;;;;;5029895;28;20422;-51
2021/06/26 11:04:26;;;;;;;13.85;11.23;;;26.90;84.70;;;;;;5029386;28;20395;-51
2021/06/26 11:07:10;;;;;;;13.10;10.55;;;26.70;86.80;;;;;;5029724;28;20403;-50
2021/06/26 11:09:44;;;;;;;12.67;9.93;;;26.60;87.60;;;;;;5009256;28;20532;-50
2021/06/26 11:12:11;;;;;;;12.25;10.10;;;26.80;87.70;;;;;;5010339;28;20410;-51
2021/06/26 11:14:47;;;;;;;11.85;10.38;;;27.10;88.20;;;;;;5022828;28;20392;-51
2021/06/26 11:17:13;;;;;;;11.23;10.00;;;26.80;89.10;;;;;;5029256;28;20394;-53
2021/06/26 11:19:38;;;;;;;13.57;10.60;;;26.90;89.90;;;;;;5028110;28;20395;-49
2021/06/26 11:22:05;;;;;;;12.80;9.50;;;27.00;87.30;;;;;;5028901;28;20803;-49
2021/06/26 11:24:38;;;;;;;11.73;7.70;;;27.40;86.70;;;;;;5028396;28;20449;-50
2021/06/26 11:27:05;;;;;;;10.40;7.13;;;28.00;84.80;;;;;;5029456;28;20399;-49
2021/06/26 11:29:39;;;;;;;11.93;7.38;;;28.50;84.20;;;;;;5028553;28;20386;-49
2021/06/26 11:32:26;;;;;;;13.30;7.82;;;28.80;85.40;;;;;;5029391;28;20383;-49
2021/06/26 11:35:15;;;;;;;11.10;8.18;;;28.80;83.10;;;;;;5029160;28;20792;-49
2021/06/26 11:37:43;;;;;;;11.10;8.07;;;28.30;84.00;;;;;;5029389;28;20846;-49
2021/06/26 11:40:16;;;;;;;12.63;9.02;;;28.30;85.00;;;;;;5029539;28;20391;-50
2021/06/26 11:42:44;;;;;;;11.10;7.80;;;28.40;85.70;;;;;;5029385;28;20557;-49
2021/06/26 11:45:12;;;;;;;11.70;7.70;;;28.50;83.20;;;;;;5044611;28;20490;-49
2021/06/26 11:47:38;;;;;;;10.60;8.20;;;28.30;83.60;;;;;;5044152;28;20398;-49
2021/06/26 11:50:12;;;;;;;10.33;7.17;;;28.30;84.50;;;;;;5029328;28;20376;-49
2021/06/26 11:52:38;;;;;;;11.45;7.32;;;28.30;82.50;;;;;;5028051;28;20466;-52
2021/06/26 11:55:04;;;;;;;10.85;7.20;;;28.30;84.40;;;;;;5029126;28;20473;-49
2021/06/26 11:57:30;;;;;;;11.90;9.40;;;28.20;84.40;;;;;;5027925;28;20379;-51
2021/06/26 11:59:56;;;;;;;10.95;7.78;;;28.30;84.80;;;;;;5028904;28;20410;-50
2021/06/26 12:02:34;;;;;;;12.52;9.02;;;28.20;85.50;;;;;;5028487;28;20407;-48
2021/06/26 12:05:04;;;;;;;12.88;9.23;;;28.20;86.10;;;;;;5028821;28;20482;-49
2021/06/26 12:07:37;;;;;;;11.85;8.52;;;28.30;86.80;;;;;;5028199;28;20478;-49
2021/06/26 12:10:05;;;;;;;10.15;7.60;;;28.00;85.40;;;;;;5029211;28;20411;-49
2021/06/26 12:12:36;;;;;;;11.82;7.80;;;27.80;86.60;;;;;;5026642;28;20803;-49
2021/06/26 12:15:03;;;;;;;11.48;8.93;;;27.60;86.30;;;;;;5028952;28;20393;-49
2021/06/26 12:17:28;;;;;;;10.48;7.95;;;27.80;86.80;;;;;;5028333;28;20429;-50
2021/06/26 12:20:20;;;;;;;9.53;7.10;;;28.40;81.70;;;;;;5029161;28;20391;-49
2021/06/26 12:22:46;;;;;;;11.40;7.28;;;28.60;83.90;;;;;;5027469;28;20517;-49
2021/06/26 12:25:16;;;;;;;10.70;7.10;;;28.90;85.30;;;;;;5028543;28;20426;-50
2021/06/26 12:27:42;;;;;;;10.70;7.28;;;29.10;80.00;;;;;;5028651;28;20470;-49
2021/06/26 12:30:16;;;;;;;16.33;14.73;;;29.00;79.50;;;;;;5029041;28;20466;-50
2021/06/26 12:32:43;;;;;;;11.38;7.40;;;29.10;83.80;;;;;;5028399;28;20853;-50